sensor_id;sensor_type;location;lat;lon;timestamp;pressure;altitude;pressure_sealevel;temperature;humidity
8717;BME280;4395;48.554;8.820;2023-03-23T00:01:55;95300.91;;;12.02;76.32
8717;BME280;4395;48.554;8.820;2023-03-23T00:03:58;95304.75;;;11.80;77.16
8717;BME280;4395;48.554;8.820;2023-03-23T00:06:00;95344.00;;;11.97;77.41
8717;BME280;4395;48.554;8.820;2023-03-23T00:08:06;95382.75;;;12.06;78.74
8717;BME280;4395;48.554;8.820;2023-03-23T00:10:09;95282.16;;;11.66;76.86
8717;BME280;4395;48.554;8.820;2023-03-23T00:12:11;95368.44;;;12.20;77.25
8717;BME280;4395;48.554;8.820;2023-03-23T00:14:16;95363.88;;;12.16;77.89
8717;BME280;4395;48.554;8.820;2023-03-23T00:16:24;95360.59;;;12.24;77.26
8717;BME280;4395;48.554;8.820;2023-03-23T00:18:30;95348.69;;;12.40;76.95
8717;BME280;4395;48.554;8.820;2023-03-23T00:20:33;95344.31;;;12.49;76.01
8717;BME280;4395;48.554;8.820;2023-03-23T00:22:41;95344.00;;;12.61;75.29
8717;BME280;4395;48.554;8.820;2023-03-23T00:24:43;95342.34;;;12.65;75.14
8717;BME280;4395;48.554;8.820;2023-03-23T00:26:47;95332.91;;;12.68;74.07
8717;BME280;4395;48.554;8.820;2023-03-23T00:28:49;95335.06;;;12.66;73.91
8717;BME280;4395;48.554;8.820;2023-03-23T00:30:56;95326.41;;;12.69;74.16
8717;BME280;4395;48.554;8.820;2023-03-23T00:32:58;95244.28;;;12.17;73.91
8717;BME280;4395;48.554;8.820;2023-03-23T00:34:59;95155.63;;;11.71;74.36
8717;BME280;4395;48.554;8.820;2023-03-23T00:37:08;95314.00;;;12.73;74.11
8717;BME280;4395;48.554;8.820;2023-03-23T00:39:10;95275.88;;;12.50;74.08
8717;BME280;4395;48.554;8.820;2023-03-23T00:41:12;95315.09;;;12.72;74.49
8717;BME280;4395;48.554;8.820;2023-03-23T00:43:16;95259.00;;;12.35;74.89
8717;BME280;4395;48.554;8.820;2023-03-23T00:45:19;95252.88;;;12.19;75.39
8717;BME280;4395;48.554;8.820;2023-03-23T00:47:21;95310.50;;;12.72;75.59
8717;BME280;4395;48.554;8.820;2023-03-23T00:49:24;95310.25;;;12.69;75.59
8717;BME280;4395;48.554;8.820;2023-03-23T00:51:26;95274.00;;;12.46;76.12
8717;BME280;4395;48.554;8.820;2023-03-23T00:53:29;95312.16;;;12.63;76.03
8717;BME280;4395;48.554;8.820;2023-03-23T00:55:32;95245.31;;;12.21;75.76
8717;BME280;4395;48.554;8.820;2023-03-23T00:57:37;94772.84;;;9.19;75.24
8717;BME280;4395;48.554;8.820;2023-03-23T00:59:39;95150.28;;;11.61;75.01
8717;BME280;4395;48.554;8.820;2023-03-23T01:01:42;95265.72;;;12.37;75.56
8717;BME280;4395;48.554;8.820;2023-03-23T01:03:43;95228.69;;;12.09;75.97
8717;BME280;4395;48.554;8.820;2023-03-23T01:05:46;95246.69;;;12.18;75.97
8717;BME280;4395;48.554;8.820;2023-03-23T01:07:48;95293.34;;;12.58;75.59
8717;BME280;4395;48.554;8.820;2023-03-23T01:09:51;95280.47;;;12.45;76.07
8717;BME280;4395;48.554;8.820;2023-03-23T01:11:53;95300.66;;;12.52;76.75
8717;BME280;4395;48.554;8.820;2023-03-23T01:13:57;95178.81;;;11.62;76.71
8717;BME280;4395;48.554;8.820;2023-03-23T01:15:59;95301.72;;;12.51;77.56
8717;BME280;4395;48.554;8.820;2023-03-23T01:18:01;95291.50;;;12.48;77.64
8717;BME280;4395;48.554;8.820;2023-03-23T01:20:03;95207.53;;;11.87;78.53
8717;BME280;4395;48.554;8.820;2023-03-23T01:22:06;95300.97;;;12.46;78.69
8717;BME280;4395;48.554;8.820;2023-03-23T01:24:08;95289.94;;;12.42;79.13
8717;BME280;4395;48.554;8.820;2023-03-23T01:26:12;95295.31;;;12.42;79.47
8717;BME280;4395;48.554;8.820;2023-03-23T01:28:15;95288.28;;;12.46;78.82
8717;BME280;4395;48.554;8.820;2023-03-23T01:30:16;95289.44;;;12.35;79.32
8717;BME280;4395;48.554;8.820;2023-03-23T01:32:18;95280.25;;;12.36;80.62
8717;BME280;4395;48.554;8.820;2023-03-23T01:34:20;95284.56;;;12.37;80.61
8717;BME280;4395;48.554;8.820;2023-03-23T01:36:23;95287.25;;;12.37;80.91
8717;BME280;4395;48.554;8.820;2023-03-23T01:38:28;95276.22;;;12.34;80.96
8717;BME280;4395;48.554;8.820;2023-03-23T01:40:30;95266.81;;;12.31;81.67
8717;BME280;4395;48.554;8.820;2023-03-23T01:42:35;95260.06;;;12.34;82.20
8717;BME280;4395;48.554;8.820;2023-03-23T01:47:27;95249.56;;;12.32;82.11
8717;BME280;4395;48.554;8.820;2023-03-23T01:49:33;95261.47;;;12.26;82.92
8717;BME280;4395;48.554;8.820;2023-03-23T01:51:39;95251.28;;;12.18;84.18
8717;BME280;4395;48.554;8.820;2023-03-23T01:53:44;95260.69;;;12.20;84.50
8717;BME280;4395;48.554;8.820;2023-03-23T01:55:49;95259.31;;;12.23;84.14
8717;BME280;4395;48.554;8.820;2023-03-23T01:57:55;95260.38;;;12.27;83.52
8717;BME280;4395;48.554;8.820;2023-03-23T02:00:02;95263.91;;;12.22;84.03
8717;BME280;4395;48.554;8.820;2023-03-23T02:02:15;95258.81;;;12.16;84.62
8717;BME280;4395;48.554;8.820;2023-03-23T02:04:20;95252.63;;;12.15;84.61
8717;BME280;4395;48.554;8.820;2023-03-23T02:06:23;95261.53;;;12.11;84.66
8717;BME280;4395;48.554;8.820;2023-03-23T02:08:41;95124.63;;;11.24;85.11
8717;BME280;4395;48.554;8.820;2023-03-23T02:10:45;95247.03;;;12.02;85.87
8717;BME280;4395;48.554;8.820;2023-03-23T02:12:47;95257.75;;;12.12;85.75
8717;BME280;4395;48.554;8.820;2023-03-23T02:14:50;95211.31;;;11.76;85.94
8717;BME280;4395;48.554;8.820;2023-03-23T02:16:55;95245.38;;;12.11;86.09
8717;BME280;4395;48.554;8.820;2023-03-23T02:19:10;95197.09;;;11.70;86.03
8717;BME280;4395;48.554;8.820;2023-03-23T02:24:10;95247.53;;;12.14;86.38
8717;BME280;4395;48.554;8.820;2023-03-23T02:26:27;95241.06;;;12.15;86.20
8717;BME280;4395;48.554;8.820;2023-03-23T02:29:00;95106.81;;;11.39;85.80
8717;BME280;4395;48.554;8.820;2023-03-23T02:31:23;95226.56;;;12.06;85.95
8717;BME280;4395;48.554;8.820;2023-03-23T02:33:40;95240.00;;;12.11;86.50
8717;BME280;4395;48.554;8.820;2023-03-23T02:35:49;95238.34;;;12.15;86.16
8717;BME280;4395;48.554;8.820;2023-03-23T02:37:57;95229.78;;;12.08;86.43
8717;BME280;4395;48.554;8.820;2023-03-23T02:40:03;95015.13;;;10.76;87.00
8717;BME280;4395;48.554;8.820;2023-03-23T02:42:10;95138.78;;;11.50;86.70
8717;BME280;4395;48.554;8.820;2023-03-23T02:44:15;95218.75;;;12.04;87.36
8717;BME280;4395;48.554;8.820;2023-03-23T02:46:18;95226.59;;;12.01;87.71
8717;BME280;4395;48.554;8.820;2023-03-23T02:48:24;95225.56;;;11.86;88.08
8717;BME280;4395;48.554;8.820;2023-03-23T02:50:32;95087.38;;;10.87;88.89
8717;BME280;4395;48.554;8.820;2023-03-23T02:52:39;95212.91;;;11.87;89.08
8717;BME280;4395;48.554;8.820;2023-03-23T02:54:42;95198.38;;;11.88;88.58
8717;BME280;4395;48.554;8.820;2023-03-23T02:56:46;95209.41;;;11.91;88.97
8717;BME280;4395;48.554;8.820;2023-03-23T02:58:55;95211.81;;;11.93;88.98
8717;BME280;4395;48.554;8.820;2023-03-23T03:00:58;95122.69;;;11.40;88.86
8717;BME280;4395;48.554;8.820;2023-03-23T03:03:03;95189.69;;;12.01;88.46
8717;BME280;4395;48.554;8.820;2023-03-23T03:05:16;95074.31;;;11.30;88.41
8717;BME280;4395;48.554;8.820;2023-03-23T03:07:30;95140.03;;;11.68;87.79
8717;BME280;4395;48.554;8.820;2023-03-23T03:09:41;95186.94;;;12.11;87.91
8717;BME280;4395;48.554;8.820;2023-03-23T03:11:48;95114.72;;;11.69;87.59
8717;BME280;4395;48.554;8.820;2023-03-23T03:13:54;95073.47;;;11.35;87.04
8717;BME280;4395;48.554;8.820;2023-03-23T03:16:02;95157.91;;;12.03;86.71
8717;BME280;4395;48.554;8.820;2023-03-23T03:18:09;95190.97;;;12.14;87.74
8717;BME280;4395;48.554;8.820;2023-03-23T03:20:14;95040.72;;;11.22;87.95
8717;BME280;4395;48.554;8.820;2023-03-23T03:22:19;95160.38;;;11.95;88.14
8717;BME280;4395;48.554;8.820;2023-03-23T03:24:26;95183.16;;;12.12;88.72
8717;BME280;4395;48.554;8.820;2023-03-23T03:26:30;95187.19;;;12.15;89.10
8717;BME280;4395;48.554;8.820;2023-03-23T03:28:55;95184.00;;;12.08;89.49
8717;BME280;4395;48.554;8.820;2023-03-23T03:30:58;95038.63;;;11.14;89.21
8717;BME280;4395;48.554;8.820;2023-03-23T03:33:03;95099.81;;;11.38;89.94
8717;BME280;4395;48.554;8.820;2023-03-23T03:35:06;95199.19;;;11.88;91.79
8717;BME280;4395;48.554;8.820;2023-03-23T03:37:08;95205.06;;;11.96;90.40
8717;BME280;4395;48.554;8.820;2023-03-23T03:39:13;95190.53;;;11.97;90.71
8717;BME280;4395;48.554;8.820;2023-03-23T03:41:19;95192.94;;;11.98;90.88
8717;BME280;4395;48.554;8.820;2023-03-23T03:43:22;95204.44;;;12.09;90.23
8717;BME280;4395;48.554;8.820;2023-03-23T03:45:25;95198.22;;;12.13;89.71
8717;BME280;4395;48.554;8.820;2023-03-23T03:47:26;95193.66;;;12.14;89.75
8717;BME280;4395;48.554;8.820;2023-03-23T03:49:28;95137.53;;;11.87;89.45
8717;BME280;4395;48.554;8.820;2023-03-23T03:51:32;95174.66;;;11.90;89.25
8717;BME280;4395;48.554;8.820;2023-03-23T03:53:34;95169.22;;;12.00;89.20
8717;BME280;4395;48.554;8.820;2023-03-23T03:55:36;95056.25;;;11.36;88.36
8717;BME280;4395;48.554;8.820;2023-03-23T03:57:44;95182.84;;;12.19;88.97
8717;BME280;4395;48.554;8.820;2023-03-23T04:00:07;95191.44;;;12.21;88.69
8717;BME280;4395;48.554;8.820;2023-03-23T04:02:14;95191.44;;;12.21;89.11
8717;BME280;4395;48.554;8.820;2023-03-23T04:04:20;95186.56;;;12.28;87.98
8717;BME280;4395;48.554;8.820;2023-03-23T04:06:23;95150.88;;;12.07;88.08
8717;BME280;4395;48.554;8.820;2023-03-23T04:08:28;95111.47;;;11.72;87.60
8717;BME280;4395;48.554;8.820;2023-03-23T04:10:31;95176.38;;;12.20;87.83
8717;BME280;4395;48.554;8.820;2023-03-23T04:12:34;95168.31;;;12.15;88.35
8717;BME280;4395;48.554;8.820;2023-03-23T04:15:16;95183.34;;;12.26;88.19
8717;BME280;4395;48.554;8.820;2023-03-23T04:17:17;95173.75;;;12.10;88.11
8717;BME280;4395;48.554;8.820;2023-03-23T04:19:21;95183.38;;;12.21;88.20
8717;BME280;4395;48.554;8.820;2023-03-23T04:21:22;95195.72;;;12.27;87.85
8717;BME280;4395;48.554;8.820;2023-03-23T04:23:31;95196.28;;;12.24;88.41
8717;BME280;4395;48.554;8.820;2023-03-23T04:25:36;95184.47;;;12.20;88.56
8717;BME280;4395;48.554;8.820;2023-03-23T04:27:40;95139.09;;;11.98;88.63
8717;BME280;4395;48.554;8.820;2023-03-23T04:29:44;95147.41;;;12.02;89.39
8717;BME280;4395;48.554;8.820;2023-03-23T04:32:16;95180.44;;;12.17;88.96
8717;BME280;4395;48.554;8.820;2023-03-23T04:34:24;95186.88;;;12.21;89.23
8717;BME280;4395;48.554;8.820;2023-03-23T04:36:27;95162.16;;;12.09;88.85
8717;BME280;4395;48.554;8.820;2023-03-23T04:38:35;95183.38;;;12.21;88.39
8717;BME280;4395;48.554;8.820;2023-03-23T04:40:44;95183.06;;;12.28;88.38
8717;BME280;4395;48.554;8.820;2023-03-23T04:42:55;95183.81;;;12.33;88.18
8717;BME280;4395;48.554;8.820;2023-03-23T04:45:23;95188.19;;;12.24;88.11
8717;BME280;4395;48.554;8.820;2023-03-23T04:47:31;95182.78;;;12.29;87.88
8717;BME280;4395;48.554;8.820;2023-03-23T04:49:35;95186.00;;;12.31;88.00
8717;BME280;4395;48.554;8.820;2023-03-23T04:51:49;95185.72;;;12.33;87.72
8717;BME280;4395;48.554;8.820;2023-03-23T04:54:09;95190.81;;;12.34;87.51
8717;BME280;4395;48.554;8.820;2023-03-23T04:56:13;95163.56;;;12.02;88.15
8717;BME280;4395;48.554;8.820;2023-03-23T04:58:18;95194.03;;;12.36;87.71
8717;BME280;4395;48.554;8.820;2023-03-23T05:00:43;95189.47;;;12.37;87.56
8717;BME280;4395;48.554;8.820;2023-03-23T05:02:53;95189.47;;;12.37;87.81
8717;BME280;4395;48.554;8.820;2023-03-23T05:04:58;95199.41;;;12.41;86.99
8717;BME280;4395;48.554;8.820;2023-03-23T05:07:02;95193.97;;;12.46;86.43
8717;BME280;4395;48.554;8.820;2023-03-23T05:09:07;95203.63;;;12.52;86.47
8717;BME280;4395;48.554;8.820;2023-03-23T05:11:10;95197.19;;;12.48;85.72
8717;BME280;4395;48.554;8.820;2023-03-23T05:13:15;95195.38;;;13.36;85.51
8717;BME280;4395;48.554;8.820;2023-03-23T05:15:21;95180.44;;;13.19;85.33
8717;BME280;4395;48.554;8.820;2023-03-23T05:17:23;95205.47;;;13.25;88.63
8717;BME280;4395;48.554;8.820;2023-03-23T05:19:29;95201.69;;;12.92;83.87
8717;BME280;4395;48.554;8.820;2023-03-23T05:21:35;95145.38;;;12.56;84.17
8717;BME280;4395;48.554;8.820;2023-03-23T05:23:37;95186.72;;;12.76;84.32
8717;BME280;4395;48.554;8.820;2023-03-23T05:25:52;95186.84;;;12.61;85.28
8717;BME280;4395;48.554;8.820;2023-03-23T05:27:54;95183.13;;;12.56;86.04
8717;BME280;4395;48.554;8.820;2023-03-23T05:30:25;95185.28;;;12.54;86.09
8717;BME280;4395;48.554;8.820;2023-03-23T05:32:30;95171.88;;;12.44;85.91
8717;BME280;4395;48.554;8.820;2023-03-23T05:34:40;95184.06;;;12.71;84.86
8717;BME280;4395;48.554;8.820;2023-03-23T05:36:42;95184.06;;;12.71;84.62
8717;BME280;4395;48.554;8.820;2023-03-23T05:39:11;95188.09;;;12.73;84.74
8717;BME280;4395;48.554;8.820;2023-03-23T05:41:38;95176.97;;;12.80;84.18
8717;BME280;4395;48.554;8.820;2023-03-23T05:43:40;95188.00;;;12.83;84.20
8717;BME280;4395;48.554;8.820;2023-03-23T05:46:08;95184.56;;;12.78;83.72
8717;BME280;4395;48.554;8.820;2023-03-23T05:48:12;95200.69;;;12.83;84.57
8717;BME280;4395;48.554;8.820;2023-03-23T05:50:15;95196.06;;;12.88;83.93
8717;BME280;4395;48.554;8.820;2023-03-23T05:52:18;95196.84;;;12.89;83.76
8717;BME280;4395;48.554;8.820;2023-03-23T05:54:21;95197.66;;;12.89;83.77
8717;BME280;4395;48.554;8.820;2023-03-23T05:56:24;95200.06;;;12.91;83.69
8717;BME280;4395;48.554;8.820;2023-03-23T05:58:52;95200.31;;;12.95;83.00
8717;BME280;4395;48.554;8.820;2023-03-23T06:00:55;95204.31;;;12.97;83.33
8717;BME280;4395;48.554;8.820;2023-03-23T06:03:03;95201.69;;;12.92;83.69
8717;BME280;4395;48.554;8.820;2023-03-23T06:05:17;95214.59;;;12.95;84.52
8717;BME280;4395;48.554;8.820;2023-03-23T06:07:24;95213.50;;;12.96;84.74
8717;BME280;4395;48.554;8.820;2023-03-23T06:09:34;95218.63;;;12.98;84.00
8717;BME280;4395;48.554;8.820;2023-03-23T06:11:39;95228.09;;;12.95;83.96
8717;BME280;4395;48.554;8.820;2023-03-23T06:14:03;95222.69;;;12.95;84.41
8717;BME280;4395;48.554;8.820;2023-03-23T06:16:06;95204.47;;;12.82;84.55
8717;BME280;4395;48.554;8.820;2023-03-23T06:18:15;95231.88;;;12.94;85.31
8717;BME280;4395;48.554;8.820;2023-03-23T06:20:54;95246.41;;;12.98;84.43
8717;BME280;4395;48.554;8.820;2023-03-23T06:23:13;95232.66;;;12.95;84.59
8717;BME280;4395;48.554;8.820;2023-03-23T06:25:16;95239.69;;;12.96;84.74
8717;BME280;4395;48.554;8.820;2023-03-23T06:27:18;95246.94;;;13.00;85.19
8717;BME280;4395;48.554;8.820;2023-03-23T06:29:20;95250.63;;;13.09;84.29
8717;BME280;4395;48.554;8.820;2023-03-23T06:31:28;95257.66;;;13.10;83.40
8717;BME280;4395;48.554;8.820;2023-03-23T06:33:30;95265.22;;;13.08;84.31
8717;BME280;4395;48.554;8.820;2023-03-23T06:35:54;95247.44;;;13.07;84.75
8717;BME280;4395;48.554;8.820;2023-03-23T06:38:15;95252.25;;;13.10;84.86
8717;BME280;4395;48.554;8.820;2023-03-23T06:40:24;95264.09;;;13.14;86.03
8717;BME280;4395;48.554;8.820;2023-03-23T06:42:30;95255.47;;;13.12;85.90
8717;BME280;4395;48.554;8.820;2023-03-23T06:44:54;95268.97;;;13.12;85.03
8717;BME280;4395;48.554;8.820;2023-03-23T06:46:58;95258.97;;;13.13;85.16
8717;BME280;4395;48.554;8.820;2023-03-23T06:49:04;95262.47;;;13.18;84.69
8717;BME280;4395;48.554;8.820;2023-03-23T06:51:19;95264.81;;;13.25;84.77
8717;BME280;4395;48.554;8.820;2023-03-23T06:53:25;95274.88;;;13.19;85.08
8717;BME280;4395;48.554;8.820;2023-03-23T06:55:29;95265.63;;;13.26;84.86
8717;BME280;4395;48.554;8.820;2023-03-23T06:57:31;95269.75;;;13.18;85.18
8717;BME280;4395;48.554;8.820;2023-03-23T06:59:33;95268.91;;;13.23;85.06
8717;BME280;4395;48.554;8.820;2023-03-23T07:01:36;95257.03;;;13.24;85.23
8717;BME280;4395;48.554;8.820;2023-03-23T07:03:38;95260.59;;;13.43;86.17
8717;BME280;4395;48.554;8.820;2023-03-23T07:05:45;95252.22;;;13.44;84.67
8717;BME280;4395;48.554;8.820;2023-03-23T07:07:49;95236.38;;;13.38;84.25
8717;BME280;4395;48.554;8.820;2023-03-23T07:10:09;95263.78;;;13.50;84.35
8717;BME280;4395;48.554;8.820;2023-03-23T07:12:12;95185.97;;;12.99;84.00
8717;BME280;4395;48.554;8.820;2023-03-23T07:14:20;95267.00;;;13.52;83.87
8717;BME280;4395;48.554;8.820;2023-03-23T07:16:22;95279.13;;;13.55;83.75
8717;BME280;4395;48.554;8.820;2023-03-23T07:18:26;95217.94;;;13.16;84.25
8717;BME280;4395;48.554;8.820;2023-03-23T07:20:31;95287.41;;;13.63;84.52
8717;BME280;4395;48.554;8.820;2023-03-23T07:22:33;95285.22;;;13.65;84.83
8717;BME280;4395;48.554;8.820;2023-03-23T07:24:44;95256.81;;;13.44;85.10
8717;BME280;4395;48.554;8.820;2023-03-23T07:26:54;95179.53;;;12.95;84.33
8717;BME280;4395;48.554;8.820;2023-03-23T07:28:56;95304.56;;;13.72;83.94
8717;BME280;4395;48.554;8.820;2023-03-23T07:31:18;95299.81;;;13.64;84.31
8717;BME280;4395;48.554;8.820;2023-03-23T07:33:20;95307.84;;;13.69;85.29
8717;BME280;4395;48.554;8.820;2023-03-23T07:35:24;95306.13;;;13.78;84.95
8717;BME280;4395;48.554;8.820;2023-03-23T07:37:31;95302.47;;;13.93;84.62
8717;BME280;4395;48.554;8.820;2023-03-23T07:39:34;95304.47;;;14.06;84.59
8717;BME280;4395;48.554;8.820;2023-03-23T07:41:38;95307.06;;;13.93;85.85
8717;BME280;4395;48.554;8.820;2023-03-23T07:43:49;95297.63;;;14.14;85.21
8717;BME280;4395;48.554;8.820;2023-03-23T07:45:56;95220.75;;;13.82;84.27
8717;BME280;4395;48.554;8.820;2023-03-23T07:48:04;95290.78;;;14.40;84.34
8717;BME280;4395;48.554;8.820;2023-03-23T07:50:07;95284.53;;;14.45;84.03
8717;BME280;4395;48.554;8.820;2023-03-23T07:52:13;95299.16;;;14.63;83.88
8717;BME280;4395;48.554;8.820;2023-03-23T07:54:15;95304.09;;;14.37;84.08
8717;BME280;4395;48.554;8.820;2023-03-23T07:56:27;95304.72;;;14.53;85.72
8717;BME280;4395;48.554;8.820;2023-03-23T07:58:41;95279.94;;;14.45;85.37
8717;BME280;4395;48.554;8.820;2023-03-23T08:00:45;95313.84;;;14.57;84.91
8717;BME280;4395;48.554;8.820;2023-03-23T08:02:51;95314.19;;;14.07;88.62
8717;BME280;4395;48.554;8.820;2023-03-23T08:05:06;95317.31;;;14.38;88.38
8717;BME280;4395;48.554;8.820;2023-03-23T08:07:32;95303.34;;;14.31;88.58
8717;BME280;4395;48.554;8.820;2023-03-23T08:10:00;95329.63;;;14.26;89.90
8717;BME280;4395;48.554;8.820;2023-03-23T08:12:20;95335.00;;;14.07;91.63
8717;BME280;4395;48.554;8.820;2023-03-23T08:14:49;95321.19;;;14.08;91.61
8717;BME280;4395;48.554;8.820;2023-03-23T08:17:30;95242.94;;;13.79;90.65
8717;BME280;4395;48.554;8.820;2023-03-23T08:19:52;95326.94;;;14.02;93.50
8717;BME280;4395;48.554;8.820;2023-03-23T08:22:13;95280.03;;;13.93;93.66
8717;BME280;4395;48.554;8.820;2023-03-23T08:24:41;95336.19;;;14.43;92.64
8717;BME280;4395;48.554;8.820;2023-03-23T08:26:57;95330.56;;;14.16;91.86
8717;BME280;4395;48.554;8.820;2023-03-23T08:28:59;95342.50;;;13.86;95.84
8717;BME280;4395;48.554;8.820;2023-03-23T08:31:21;95341.53;;;14.01;95.28
8717;BME280;4395;48.554;8.820;2023-03-23T08:33:36;95340.03;;;14.13;95.24
8717;BME280;4395;48.554;8.820;2023-03-23T08:36:05;95335.13;;;14.39;94.76
8717;BME280;4395;48.554;8.820;2023-03-23T08:38:34;95340.09;;;14.75;91.65
8717;BME280;4395;48.554;8.820;2023-03-23T08:41:09;95345.06;;;14.68;90.95
8717;BME280;4395;48.554;8.820;2023-03-23T08:43:25;95354.34;;;14.80;91.71
8717;BME280;4395;48.554;8.820;2023-03-23T08:45:33;95352.91;;;13.98;96.50
8717;BME280;4395;48.554;8.820;2023-03-23T08:47:55;95353.59;;;14.32;95.51
8717;BME280;4395;48.554;8.820;2023-03-23T08:50:15;95358.78;;;14.53;94.46
8717;BME280;4395;48.554;8.820;2023-03-23T08:52:32;95365.50;;;14.55;94.25
8717;BME280;4395;48.554;8.820;2023-03-23T08:55:02;95355.03;;;14.25;97.77
8717;BME280;4395;48.554;8.820;2023-03-23T08:57:26;95380.53;;;14.42;96.21
8717;BME280;4395;48.554;8.820;2023-03-23T08:59:44;95367.84;;;14.43;96.79
8717;BME280;4395;48.554;8.820;2023-03-23T09:02:09;95367.81;;;14.19;98.00
8717;BME280;4395;48.554;8.820;2023-03-23T09:04:27;95361.06;;;14.40;96.63
8717;BME280;4395;48.554;8.820;2023-03-23T09:06:51;95369.94;;;14.22;98.38
8717;BME280;4395;48.554;8.820;2023-03-23T09:08:53;95322.25;;;14.31;97.28
8717;BME280;4395;48.554;8.820;2023-03-23T09:10:58;95080.38;;;12.87;95.48
8717;BME280;4395;48.554;8.820;2023-03-23T09:13:00;95354.84;;;15.20;92.74
8717;BME280;4395;48.554;8.820;2023-03-23T09:15:02;95363.47;;;15.41;90.96
8717;BME280;4395;48.554;8.820;2023-03-23T09:17:08;95364.31;;;15.55;90.38
8717;BME280;4395;48.554;8.820;2023-03-23T09:19:12;95372.44;;;15.55;91.16
8717;BME280;4395;48.554;8.820;2023-03-23T09:21:15;95377.66;;;15.70;89.17
8717;BME280;4395;48.554;8.820;2023-03-23T09:23:17;95384.25;;;15.27;92.07
8717;BME280;4395;48.554;8.820;2023-03-23T09:25:20;95408.81;;;15.49;89.22
8717;BME280;4395;48.554;8.820;2023-03-23T09:27:23;95398.09;;;15.06;91.15
8717;BME280;4395;48.554;8.820;2023-03-23T09:29:25;95402.75;;;15.38;89.62
8717;BME280;4395;48.554;8.820;2023-03-23T09:31:27;95407.97;;;15.35;89.98
8717;BME280;4395;48.554;8.820;2023-03-23T09:33:29;95402.75;;;15.38;89.44
8717;BME280;4395;48.554;8.820;2023-03-23T09:35:35;95412.91;;;15.47;89.98
8717;BME280;4395;48.554;8.820;2023-03-23T09:37:39;95408.19;;;15.57;90.10
8717;BME280;4395;48.554;8.820;2023-03-23T09:39:41;95407.75;;;15.69;89.13
8717;BME280;4395;48.554;8.820;2023-03-23T09:41:59;95426.84;;;15.78;88.06
8717;BME280;4395;48.554;8.820;2023-03-23T09:44:07;95403.13;;;15.69;87.31
8717;BME280;4395;48.554;8.820;2023-03-23T09:46:20;95311.66;;;14.96;90.49
8717;BME280;4395;48.554;8.820;2023-03-23T09:48:34;95398.59;;;15.08;91.07
8717;BME280;4395;48.554;8.820;2023-03-23T09:50:41;95414.53;;;14.91;91.51
8717;BME280;4395;48.554;8.820;2023-03-23T09:52:48;95269.59;;;13.86;94.45
8717;BME280;4395;48.554;8.820;2023-03-23T09:54:54;95315.44;;;14.15;92.91
8717;BME280;4395;48.554;8.820;2023-03-23T09:56:58;95384.91;;;14.81;94.28
8717;BME280;4395;48.554;8.820;2023-03-23T09:59:08;95397.66;;;15.18;90.82
8717;BME280;4395;48.554;8.820;2023-03-23T10:01:16;95383.94;;;14.53;95.03
8717;BME280;4395;48.554;8.820;2023-03-23T10:03:21;95292.81;;;14.30;92.38
8717;BME280;4395;48.554;8.820;2023-03-23T10:05:32;95419.16;;;15.09;91.47
8717;BME280;4395;48.554;8.820;2023-03-23T10:07:34;95404.47;;;15.16;91.37
8717;BME280;4395;48.554;8.820;2023-03-23T10:09:37;95396.69;;;15.28;92.87
8717;BME280;4395;48.554;8.820;2023-03-23T10:11:47;95397.19;;;16.00;88.40
8717;BME280;4395;48.554;8.820;2023-03-23T10:14:06;95376.13;;;15.64;85.62
8717;BME280;4395;48.554;8.820;2023-03-23T10:16:11;95371.66;;;15.36;89.51
8717;BME280;4395;48.554;8.820;2023-03-23T10:18:17;95419.84;;;15.90;87.63
8717;BME280;4395;48.554;8.820;2023-03-23T10:20:27;95414.41;;;15.77;88.36
8717;BME280;4395;48.554;8.820;2023-03-23T10:22:33;95387.78;;;15.08;90.99
8717;BME280;4395;48.554;8.820;2023-03-23T10:24:43;95401.75;;;15.34;90.91
8717;BME280;4395;48.554;8.820;2023-03-23T10:26:53;95418.63;;;15.83;89.43
8717;BME280;4395;48.554;8.820;2023-03-23T10:28:59;95365.91;;;15.24;89.16
8717;BME280;4395;48.554;8.820;2023-03-23T10:31:03;95416.88;;;16.05;86.27
8717;BME280;4395;48.554;8.820;2023-03-23T10:33:13;95415.00;;;16.33;86.11
8717;BME280;4395;48.554;8.820;2023-03-23T10:35:22;95413.72;;;16.45;84.57
8717;BME280;4395;48.554;8.820;2023-03-23T10:37:30;95416.56;;;16.67;85.00
8717;BME280;4395;48.554;8.820;2023-03-23T10:39:43;95409.50;;;16.93;82.50
8717;BME280;4395;48.554;8.820;2023-03-23T10:41:46;95408.09;;;17.32;79.72
8717;BME280;4395;48.554;8.820;2023-03-23T10:43:48;95404.88;;;17.66;77.95
8717;BME280;4395;48.554;8.820;2023-03-23T10:45:55;95398.94;;;16.51;80.03
8717;BME280;4395;48.554;8.820;2023-03-23T10:48:11;95387.38;;;16.59;80.86
8717;BME280;4395;48.554;8.820;2023-03-23T10:50:18;95410.19;;;17.35;80.30
8717;BME280;4395;48.554;8.820;2023-03-23T10:52:30;95413.13;;;17.25;79.09
8717;BME280;4395;48.554;8.820;2023-03-23T10:54:37;95391.19;;;17.57;77.19
8717;BME280;4395;48.554;8.820;2023-03-23T10:56:42;95376.63;;;17.31;76.41
8717;BME280;4395;48.554;8.820;2023-03-23T10:58:44;95408.34;;;17.44;76.03
8717;BME280;4395;48.554;8.820;2023-03-23T11:00:47;95428.00;;;17.63;75.80
8717;BME280;4395;48.554;8.820;2023-03-23T11:02:58;95357.78;;;17.12;75.45
8717;BME280;4395;48.554;8.820;2023-03-23T11:05:02;95412.19;;;17.65;76.79
8717;BME280;4395;48.554;8.820;2023-03-23T11:07:21;95405.50;;;16.77;78.62
8717;BME280;4395;48.554;8.820;2023-03-23T11:09:34;95408.19;;;15.57;85.61
8717;BME280;4395;48.554;8.820;2023-03-23T11:11:38;95404.72;;;16.03;90.06
8717;BME280;4395;48.554;8.820;2023-03-23T11:13:45;95284.41;;;15.25;87.29
8717;BME280;4395;48.554;8.820;2023-03-23T11:15:48;95401.22;;;16.16;91.28
8717;BME280;4395;48.554;8.820;2023-03-23T11:17:59;95393.88;;;16.03;90.81
8717;BME280;4395;48.554;8.820;2023-03-23T11:20:10;95390.81;;;16.37;91.93
8717;BME280;4395;48.554;8.820;2023-03-23T11:22:17;95396.25;;;16.78;87.81
8717;BME280;4395;48.554;8.820;2023-03-23T11:24:22;95394.19;;;16.97;85.66
8717;BME280;4395;48.554;8.820;2023-03-23T11:26:26;95383.84;;;16.99;79.70
8717;BME280;4395;48.554;8.820;2023-03-23T11:28:32;95386.63;;;17.08;80.20
8717;BME280;4395;48.554;8.820;2023-03-23T11:30:37;95390.38;;;16.98;80.29
8717;BME280;4395;48.554;8.820;2023-03-23T11:32:43;95385.75;;;16.99;79.53
8717;BME280;4395;48.554;8.820;2023-03-23T11:34:48;95379.16;;;16.64;81.16
8717;BME280;4395;48.554;8.820;2023-03-23T11:36:52;95346.22;;;16.70;82.49
8717;BME280;4395;48.554;8.820;2023-03-23T11:38:55;95391.81;;;16.82;79.56
8717;BME280;4395;48.554;8.820;2023-03-23T11:40:59;95385.66;;;16.90;74.30
8717;BME280;4395;48.554;8.820;2023-03-23T11:43:07;95374.22;;;16.80;75.85
8717;BME280;4395;48.554;8.820;2023-03-23T11:45:18;95389.59;;;16.84;75.55